sensor_id;sensor_type;location;lat;lon;timestamp;pressure;altitude;pressure_sealevel;temperature;humidity
16100;BME280;8154;50.830;12.082;2024-03-23T00:55:14;98597.75;;;23.78;33.94
16100;BME280;8154;50.830;12.082;2024-03-23T00:57:40;98586.84;;;23.80;34.09
16100;BME280;8154;50.830;12.082;2024-03-23T01:00:07;98573.03;;;23.65;34.21
16100;BME280;8154;50.830;12.082;2024-03-23T01:02:36;98567.97;;;23.57;34.32
16100;BME280;8154;50.830;12.082;2024-03-23T01:05:02;98556.25;;;23.58;34.07
16100;BME280;8154;50.830;12.082;2024-03-23T01:07:29;98559.91;;;23.63;34.31
16100;BME280;8154;50.830;12.082;2024-03-23T01:09:56;98536.19;;;23.55;34.02
16100;BME280;8154;50.830;12.082;2024-03-23T01:12:23;98549.19;;;23.70;34.20
16100;BME280;8154;50.830;12.082;2024-03-23T01:14:49;98554.09;;;23.73;34.13
16100;BME280;8154;50.830;12.082;2024-03-23T01:17:16;98557.03;;;23.65;34.39
16100;BME280;8154;50.830;12.082;2024-03-23T01:19:42;98543.91;;;23.63;34.29
16100;BME280;8154;50.830;12.082;2024-03-23T01:22:08;98544.78;;;23.57;34.15
16100;BME280;8154;50.830;12.082;2024-03-23T01:24:36;98540.63;;;23.61;34.05
16100;BME280;8154;50.830;12.082;2024-03-23T01:27:02;98538.88;;;23.73;33.99
16100;BME280;8154;50.830;12.082;2024-03-23T01:29:28;98531.44;;;23.82;33.86
16100;BME280;8154;50.830;12.082;2024-03-23T01:31:54;98536.22;;;23.73;33.98
16100;BME280;8154;50.830;12.082;2024-03-23T01:34:20;98526.16;;;23.51;34.19
16100;BME280;8154;50.830;12.082;2024-03-23T01:36:46;98536.41;;;23.54;34.12
16100;BME280;8154;50.830;12.082;2024-03-23T01:39:13;98541.94;;;23.52;34.49
16100;BME280;8154;50.830;12.082;2024-03-23T01:41:40;98532.25;;;23.58;34.31
16100;BME280;8154;50.830;12.082;2024-03-23T01:44:08;98529.56;;;23.58;34.11
16100;BME280;8154;50.830;12.082;2024-03-23T01:46:35;98529.22;;;23.54;34.35
16100;BME280;8154;50.830;12.082;2024-03-23T01:49:03;98540.91;;;23.53;34.44
16100;BME280;8154;50.830;12.082;2024-03-23T01:51:30;98540.09;;;23.53;34.42
16100;BME280;8154;50.830;12.082;2024-03-23T01:53:57;98516.69;;;23.55;34.26
16100;BME280;8154;50.830;12.082;2024-03-23T01:56:23;98507.88;;;23.54;34.31
16100;BME280;8154;50.830;12.082;2024-03-23T01:58:49;98501.91;;;23.59;34.37
16100;BME280;8154;50.830;12.082;2024-03-23T02:01:16;98489.78;;;23.56;34.36
16100;BME280;8154;50.830;12.082;2024-03-23T02:03:42;98497.00;;;23.56;34.18
16100;BME280;8154;50.830;12.082;2024-03-23T02:06:08;98500.97;;;23.71;33.84
16100;BME280;8154;50.830;12.082;2024-03-23T02:08:34;98500.66;;;23.79;34.13
16100;BME280;8154;50.830;12.082;2024-03-23T02:11:01;98488.75;;;23.82;33.70
16100;BME280;8154;50.830;12.082;2024-03-23T02:13:27;98491.56;;;23.87;33.89
16100;BME280;8154;50.830;12.082;2024-03-23T02:15:53;98500.13;;;23.71;34.10
16100;BME280;8154;50.830;12.082;2024-03-23T02:18:19;98494.03;;;23.64;34.10
16100;BME280;8154;50.830;12.082;2024-03-23T02:20:45;98497.13;;;23.61;34.37
16100;BME280;8154;50.830;12.082;2024-03-23T02:23:18;98500.25;;;23.58;34.56
16100;BME280;8154;50.830;12.082;2024-03-23T02:25:45;98494.78;;;23.53;34.29
16100;BME280;8154;50.830;12.082;2024-03-23T02:28:11;98489.00;;;23.56;34.15
16100;BME280;8154;50.830;12.082;2024-03-23T02:30:38;98471.13;;;23.56;34.28
16100;BME280;8154;50.830;12.082;2024-03-23T02:33:04;98469.28;;;23.57;34.20
16100;BME280;8154;50.830;12.082;2024-03-23T02:35:30;98463.28;;;23.61;34.25
16100;BME280;8154;50.830;12.082;2024-03-23T02:37:56;98448.31;;;23.60;34.26
16100;BME280;8154;50.830;12.082;2024-03-23T02:40:23;98450.41;;;23.58;34.19
16100;BME280;8154;50.830;12.082;2024-03-23T02:42:50;98459.50;;;23.51;34.60
16100;BME280;8154;50.830;12.082;2024-03-23T02:45:16;98453.59;;;23.67;34.08
16100;BME280;8154;50.830;12.082;2024-03-23T02:47:42;98450.06;;;23.73;34.09
16100;BME280;8154;50.830;12.082;2024-03-23T02:50:09;98441.94;;;23.61;34.16
16100;BME280;8154;50.830;12.082;2024-03-23T02:52:36;98462.19;;;23.69;34.32
16100;BME280;8154;50.830;12.082;2024-03-23T02:55:03;98454.00;;;23.64;33.93
16100;BME280;8154;50.830;12.082;2024-03-23T02:57:30;98449.00;;;23.56;34.28
16100;BME280;8154;50.830;12.082;2024-03-23T02:59:56;98445.50;;;23.55;34.26
16100;BME280;8154;50.830;12.082;2024-03-23T03:02:22;98447.13;;;23.56;34.50
16100;BME280;8154;50.830;12.082;2024-03-23T03:04:49;98438.75;;;23.53;34.34
16100;BME280;8154;50.830;12.082;2024-03-23T03:07:15;98418.44;;;23.52;34.43
16100;BME280;8154;50.830;12.082;2024-03-23T03:09:41;98419.28;;;23.52;34.28
16100;BME280;8154;50.830;12.082;2024-03-23T03:12:07;98412.66;;;23.55;34.27
16100;BME280;8154;50.830;12.082;2024-03-23T03:14:34;98410.59;;;23.57;34.46
16100;BME280;8154;50.830;12.082;2024-03-23T03:17:00;98406.91;;;23.58;34.16
16100;BME280;8154;50.830;12.082;2024-03-23T03:19:26;98402.09;;;23.66;34.10
16100;BME280;8154;50.830;12.082;2024-03-23T03:21:53;98397.88;;;23.77;34.06
16100;BME280;8154;50.830;12.082;2024-03-23T03:24:19;98395.59;;;23.80;33.72
16100;BME280;8154;50.830;12.082;2024-03-23T03:26:45;98392.81;;;23.69;34.20
16100;BME280;8154;50.830;12.082;2024-03-23T03:29:11;98381.44;;;23.62;34.22
16100;BME280;8154;50.830;12.082;2024-03-23T03:31:40;98372.44;;;23.56;34.23
16100;BME280;8154;50.830;12.082;2024-03-23T03:34:07;98371.25;;;23.52;34.29
16100;BME280;8154;50.830;12.082;2024-03-23T03:36:33;98343.44;;;23.48;34.36
16100;BME280;8154;50.830;12.082;2024-03-23T03:38:59;98331.09;;;23.47;34.79
16100;BME280;8154;50.830;12.082;2024-03-23T03:41:25;98344.66;;;23.46;34.41
16100;BME280;8154;50.830;12.082;2024-03-23T03:43:51;98346.88;;;23.49;34.40
16100;BME280;8154;50.830;12.082;2024-03-23T03:46:17;98341.09;;;23.52;34.27
16100;BME280;8154;50.830;12.082;2024-03-23T03:48:43;98332.88;;;23.53;34.31
16100;BME280;8154;50.830;12.082;2024-03-23T03:51:11;98335.94;;;23.57;34.49
16100;BME280;8154;50.830;12.082;2024-03-23T03:53:37;98335.94;;;23.57;34.54
16100;BME280;8154;50.830;12.082;2024-03-23T03:56:03;98339.66;;;23.56;34.35
16100;BME280;8154;50.830;12.082;2024-03-23T03:58:29;98344.16;;;23.55;34.49
16100;BME280;8154;50.830;12.082;2024-03-23T04:00:55;98334.81;;;23.64;34.28
16100;BME280;8154;50.830;12.082;2024-03-23T04:03:21;98329.09;;;23.79;33.73
16100;BME280;8154;50.830;12.082;2024-03-23T04:05:53;98324.50;;;23.68;34.18
16100;BME280;8154;50.830;12.082;2024-03-23T04:08:20;98308.38;;;23.63;34.04
16100;BME280;8154;50.830;12.082;2024-03-23T04:10:46;98308.66;;;23.55;34.28
16100;BME280;8154;50.830;12.082;2024-03-23T04:13:13;98298.38;;;23.58;34.38
16100;BME280;8154;50.830;12.082;2024-03-23T04:15:40;98288.16;;;23.55;34.39
16100;BME280;8154;50.830;12.082;2024-03-23T04:18:06;98271.19;;;23.50;34.38
16100;BME280;8154;50.830;12.082;2024-03-23T04:20:32;98271.19;;;23.50;34.37
16100;BME280;8154;50.830;12.082;2024-03-23T04:22:59;98271.19;;;23.50;34.58
16100;BME280;8154;50.830;12.082;2024-03-23T04:25:25;98271.31;;;23.55;34.16
16100;BME280;8154;50.830;12.082;2024-03-23T04:27:51;98273.97;;;23.55;34.16
16100;BME280;8154;50.830;12.082;2024-03-23T04:30:17;98260.31;;;23.51;34.25
16100;BME280;8154;50.830;12.082;2024-03-23T04:32:43;98262.06;;;23.57;34.16
16100;BME280;8154;50.830;12.082;2024-03-23T04:35:09;98267.03;;;23.54;34.51
16100;BME280;8154;50.830;12.082;2024-03-23T04:37:37;98244.66;;;23.55;33.94
16100;BME280;8154;50.830;12.082;2024-03-23T04:40:04;98252.41;;;23.74;33.76
16100;BME280;8154;50.830;12.082;2024-03-23T04:42:30;98264.63;;;23.82;33.99
16100;BME280;8154;50.830;12.082;2024-03-23T04:44:57;98267.16;;;23.77;33.83
16100;BME280;8154;50.830;12.082;2024-03-23T04:47:23;98261.56;;;23.67;34.25
16100;BME280;8154;50.830;12.082;2024-03-23T04:49:49;98251.19;;;23.59;34.40
16100;BME280;8154;50.830;12.082;2024-03-23T04:52:18;98232.81;;;23.51;34.32
16100;BME280;8154;50.830;12.082;2024-03-23T04:54:44;98252.31;;;23.51;34.62
16100;BME280;8154;50.830;12.082;2024-03-23T04:57:11;98246.75;;;23.53;34.53
16100;BME280;8154;50.830;12.082;2024-03-23T04:59:37;98215.78;;;23.52;34.35
16100;BME280;8154;50.830;12.082;2024-03-23T05:02:03;98212.09;;;23.53;34.34
16100;BME280;8154;50.830;12.082;2024-03-23T05:04:29;98205.94;;;23.52;34.52
16100;BME280;8154;50.830;12.082;2024-03-23T05:06:55;98194.81;;;23.55;34.22
16100;BME280;8154;50.830;12.082;2024-03-23T05:09:21;98187.66;;;23.67;34.24
16100;BME280;8154;50.830;12.082;2024-03-23T05:11:48;98196.78;;;23.60;34.18
16100;BME280;8154;50.830;12.082;2024-03-23T05:14:14;98176.28;;;23.60;34.15
16100;BME280;8154;50.830;12.082;2024-03-23T05:16:40;98162.81;;;23.55;34.14
16100;BME280;8154;50.830;12.082;2024-03-23T05:19:07;98178.50;;;23.75;34.08
16100;BME280;8154;50.830;12.082;2024-03-23T05:21:33;98173.38;;;23.62;34.08
16100;BME280;8154;50.830;12.082;2024-03-23T05:23:59;98159.22;;;23.61;34.17
16100;BME280;8154;50.830;12.082;2024-03-23T05:26:25;98154.56;;;23.57;34.40
16100;BME280;8154;50.830;12.082;2024-03-23T05:28:51;98150.00;;;23.75;33.83
16100;BME280;8154;50.830;12.082;2024-03-23T05:31:24;98140.63;;;23.84;33.83
16100;BME280;8154;50.830;12.082;2024-03-23T05:33:50;98143.19;;;23.91;33.83
16100;BME280;8154;50.830;12.082;2024-03-23T05:36:17;98134.53;;;23.66;34.21
16100;BME280;8154;50.830;12.082;2024-03-23T05:38:43;98141.38;;;23.62;34.05
16100;BME280;8154;50.830;12.082;2024-03-23T05:41:09;98142.06;;;23.57;34.39
16100;BME280;8154;50.830;12.082;2024-03-23T05:43:35;98157.84;;;23.59;34.22
16100;BME280;8154;50.830;12.082;2024-03-23T05:46:03;98150.31;;;23.67;34.28
16100;BME280;8154;50.830;12.082;2024-03-23T05:48:31;98134.84;;;23.58;34.19
16100;BME280;8154;50.830;12.082;2024-03-23T05:50:57;98133.84;;;23.59;34.39
16100;BME280;8154;50.830;12.082;2024-03-23T05:53:24;98115.84;;;23.54;34.40
16100;BME280;8154;50.830;12.082;2024-03-23T05:55:51;98127.34;;;23.66;34.27
16100;BME280;8154;50.830;12.082;2024-03-23T05:58:20;98124.94;;;23.76;33.83
16100;BME280;8154;50.830;12.082;2024-03-23T06:00:46;98113.56;;;23.81;33.88
16100;BME280;8154;50.830;12.082;2024-03-23T06:03:12;98123.44;;;23.80;33.93
16100;BME280;8154;50.830;12.082;2024-03-23T06:05:38;98126.53;;;23.66;34.09
16100;BME280;8154;50.830;12.082;2024-03-23T06:08:05;98099.63;;;23.56;34.50
16100;BME280;8154;50.830;12.082;2024-03-23T06:10:31;98093.94;;;23.52;34.64
16100;BME280;8154;50.830;12.082;2024-03-23T06:12:59;98084.00;;;23.71;34.34
16100;BME280;8154;50.830;12.082;2024-03-23T06:15:26;98078.97;;;23.63;34.28
16100;BME280;8154;50.830;12.082;2024-03-23T06:17:53;98051.94;;;23.59;34.34
16100;BME280;8154;50.830;12.082;2024-03-23T06:20:19;98057.41;;;23.53;34.41
16100;BME280;8154;50.830;12.082;2024-03-23T06:22:45;98067.03;;;23.54;34.39
16100;BME280;8154;50.830;12.082;2024-03-23T06:25:11;98042.56;;;23.57;34.35
16100;BME280;8154;50.830;12.082;2024-03-23T06:27:38;98040.59;;;23.52;34.29
16100;BME280;8154;50.830;12.082;2024-03-23T06:30:06;98040.13;;;23.55;34.45
16100;BME280;8154;50.830;12.082;2024-03-23T06:32:32;98030.84;;;23.58;34.15
16100;BME280;8154;50.830;12.082;2024-03-23T06:34:58;98031.56;;;23.65;34.26
16100;BME280;8154;50.830;12.082;2024-03-23T06:37:25;98025.50;;;23.58;34.19
16100;BME280;8154;50.830;12.082;2024-03-23T06:39:51;98020.88;;;23.53;34.44
16100;BME280;8154;50.830;12.082;2024-03-23T06:42:17;98027.50;;;23.51;34.32
16100;BME280;8154;50.830;12.082;2024-03-23T06:44:44;98015.53;;;23.42;34.57
16100;BME280;8154;50.830;12.082;2024-03-23T06:47:10;98010.34;;;23.70;34.06
16100;BME280;8154;50.830;12.082;2024-03-23T06:49:36;98009.44;;;23.76;33.82
16100;BME280;8154;50.830;12.082;2024-03-23T06:52:02;98002.69;;;23.62;34.49
16100;BME280;8154;50.830;12.082;2024-03-23T06:54:29;97990.06;;;23.57;34.26
16100;BME280;8154;50.830;12.082;2024-03-23T06:56:55;97984.72;;;23.57;34.41
16100;BME280;8154;50.830;12.082;2024-03-23T06:59:21;97979.38;;;23.57;34.20
16100;BME280;8154;50.830;12.082;2024-03-23T07:01:47;97980.19;;;23.58;34.09
16100;BME280;8154;50.830;12.082;2024-03-23T07:04:13;97969.19;;;23.54;34.09
16100;BME280;8154;50.830;12.082;2024-03-23T07:06:45;97977.41;;;23.53;34.44
16100;BME280;8154;50.830;12.082;2024-03-23T07:09:12;97979.03;;;23.54;34.47
16100;BME280;8154;50.830;12.082;2024-03-23T07:11:38;97979.03;;;23.54;34.49
16100;BME280;8154;50.830;12.082;2024-03-23T07:14:04;97974.28;;;23.56;34.13
16100;BME280;8154;50.830;12.082;2024-03-23T07:16:30;97972.53;;;23.50;34.36
16100;BME280;8154;50.830;12.082;2024-03-23T07:18:57;97973.13;;;23.63;34.39
16100;BME280;8154;50.830;12.082;2024-03-23T07:21:23;97971.38;;;23.57;34.24
16100;BME280;8154;50.830;12.082;2024-03-23T07:23:49;97979.25;;;23.52;34.55
16100;BME280;8154;50.830;12.082;2024-03-23T07:26:15;97985.41;;;23.53;34.48
16100;BME280;8154;50.830;12.082;2024-03-23T07:28:41;97987.25;;;23.52;34.37
16100;BME280;8154;50.830;12.082;2024-03-23T07:31:11;97977.88;;;23.50;34.51
16100;BME280;8154;50.830;12.082;2024-03-23T07:33:41;97963.50;;;23.51;34.64
16100;BME280;8154;50.830;12.082;2024-03-23T07:36:08;97955.50;;;23.51;34.36
16100;BME280;8154;50.830;12.082;2024-03-23T07:38:34;97940.56;;;23.50;34.62
16100;BME280;8154;50.830;12.082;2024-03-23T07:41:04;97936.38;;;23.54;34.57
16100;BME280;8154;50.830;12.082;2024-03-23T07:43:31;97962.56;;;23.57;34.56
16100;BME280;8154;50.830;12.082;2024-03-23T07:45:58;97955.38;;;23.46;34.60
16100;BME280;8154;50.830;12.082;2024-03-23T07:48:24;97972.09;;;23.53;34.31
16100;BME280;8154;50.830;12.082;2024-03-23T07:53:27;97981.09;;;23.52;34.46
16100;BME280;8154;50.830;12.082;2024-03-23T07:56:00;98004.19;;;23.58;34.33
16100;BME280;8154;50.830;12.082;2024-03-23T07:58:27;98011.28;;;23.75;34.02
16100;BME280;8154;50.830;12.082;2024-03-23T08:00:54;98003.38;;;23.57;34.15
16100;BME280;8154;50.830;12.082;2024-03-23T08:03:20;98031.44;;;23.60;34.21
16100;BME280;8154;50.830;12.082;2024-03-23T08:05:46;98051.41;;;23.57;34.45
16100;BME280;8154;50.830;12.082;2024-03-23T08:08:13;98041.75;;;23.56;34.29
16100;BME280;8154;50.830;12.082;2024-03-23T08:10:52;98077.09;;;23.52;34.71
16100;BME280;8154;50.830;12.082;2024-03-23T08:13:19;98096.81;;;23.51;34.50
16100;BME280;8154;50.830;12.082;2024-03-23T08:15:45;98120.59;;;23.52;34.78
16100;BME280;8154;50.830;12.082;2024-03-23T08:18:12;98157.69;;;23.54;34.66
16100;BME280;8154;50.830;12.082;2024-03-23T08:20:39;98171.03;;;23.54;34.71
16100;BME280;8154;50.830;12.082;2024-03-23T08:23:06;98191.19;;;23.50;34.42
16100;BME280;8154;50.830;12.082;2024-03-23T08:25:33;98217.28;;;23.48;34.43
16100;BME280;8154;50.830;12.082;2024-03-23T08:27:59;98233.41;;;23.53;34.68
16100;BME280;8154;50.830;12.082;2024-03-23T08:30:25;98209.41;;;23.53;34.39
16100;BME280;8154;50.830;12.082;2024-03-23T08:32:51;98225.19;;;23.54;34.32
16100;BME280;8154;50.830;12.082;2024-03-23T08:35:18;98241.81;;;23.68;34.33
16100;BME280;8154;50.830;12.082;2024-03-23T08:37:44;98246.75;;;23.53;34.37
16100;BME280;8154;50.830;12.082;2024-03-23T08:40:10;98257.75;;;23.56;34.50
16100;BME280;8154;50.830;12.082;2024-03-23T08:42:36;98254.84;;;23.76;34.27
16100;BME280;8154;50.830;12.082;2024-03-23T08:45:02;98270.19;;;23.80;33.97
16100;BME280;8154;50.830;12.082;2024-03-23T08:47:29;98279.44;;;23.78;34.23
16100;BME280;8154;50.830;12.082;2024-03-23T08:49:55;98287.59;;;23.83;34.13
16100;BME280;8154;50.830;12.082;2024-03-23T08:52:21;98252.22;;;23.40;34.21
16100;BME280;8154;50.830;12.082;2024-03-23T08:54:48;98309.25;;;23.57;34.36
16100;BME280;8154;50.830;12.082;2024-03-23T08:57:15;98308.44;;;23.56;34.67
16100;BME280;8154;50.830;12.082;2024-03-23T08:59:41;98323.63;;;23.56;34.63
16100;BME280;8154;50.830;12.082;2024-03-23T09:02:07;98346.44;;;23.52;34.66
16100;BME280;8154;50.830;12.082;2024-03-23T09:04:33;98360.59;;;23.52;34.61
16100;BME280;8154;50.830;12.082;2024-03-23T09:06:59;98382.75;;;23.53;34.50
16100;BME280;8154;50.830;12.082;2024-03-23T09:09:26;98396.09;;;23.53;34.42
16100;BME280;8154;50.830;12.082;2024-03-23T09:11:52;98397.66;;;23.60;34.50
16100;BME280;8154;50.830;12.082;2024-03-23T09:14:18;98402.59;;;23.75;34.00
16100;BME280;8154;50.830;12.082;2024-03-23T09:16:44;98413.44;;;23.62;34.51
16100;BME280;8154;50.830;12.082;2024-03-23T09:19:10;98421.28;;;23.57;34.41
16100;BME280;8154;50.830;12.082;2024-03-23T09:21:36;98406.38;;;23.67;34.33
16100;BME280;8154;50.830;12.082;2024-03-23T09:24:03;98427.06;;;23.72;34.28
16100;BME280;8154;50.830;12.082;2024-03-23T09:26:29;98427.38;;;23.82;33.95
16100;BME280;8154;50.830;12.082;2024-03-23T09:28:55;98440.22;;;23.91;34.02
16100;BME280;8154;50.830;12.082;2024-03-23T09:31:21;98440.78;;;23.75;34.16
16100;BME280;8154;50.830;12.082;2024-03-23T09:33:48;98430.69;;;23.59;34.41
16100;BME280;8154;50.830;12.082;2024-03-23T09:36:14;98451.22;;;23.59;34.63
16100;BME280;8154;50.830;12.082;2024-03-23T09:38:41;98462.63;;;23.66;34.47
16100;BME280;8154;50.830;12.082;2024-03-23T09:41:08;98477.44;;;23.62;34.41
16100;BME280;8154;50.830;12.082;2024-03-23T09:43:35;98477.06;;;23.58;34.34
16100;BME280;8154;50.830;12.082;2024-03-23T09:46:04;98483.66;;;23.56;34.28
16100;BME280;8154;50.830;12.082;2024-03-23T09:48:31;98484.09;;;23.53;34.57
16100;BME280;8154;50.830;12.082;2024-03-23T09:50:57;98493.50;;;23.55;34.65
16100;BME280;8154;50.830;12.082;2024-03-23T09:53:23;98439.69;;;23.16;34.40
16100;BME280;8154;50.830;12.082;2024-03-23T09:55:49;98510.38;;;23.74;34.35
16100;BME280;8154;50.830;12.082;2024-03-23T09:58:17;98523.44;;;23.82;34.06
16100;BME280;8154;50.830;12.082;2024-03-23T10:00:44;98538.41;;;23.83;34.13
16100;BME280;8154;50.830;12.082;2024-03-23T10:03:10;98533.63;;;23.67;34.21
16100;BME280;8154;50.830;12.082;2024-03-23T10:05:37;98539.06;;;23.54;34.28
16100;BME280;8154;50.830;12.082;2024-03-23T10:10:42;98542.09;;;23.82;34.06
16100;BME280;8154;50.830;12.082;2024-03-23T10:13:08;98549.00;;;23.89;33.78
16100;BME280;8154;50.830;12.082;2024-03-23T10:15:36;98564.41;;;23.87;33.75
16100;BME280;8154;50.830;12.082;2024-03-23T10:18:19;98528.44;;;23.47;34.35
16100;BME280;8154;50.830;12.082;2024-03-23T10:23:40;98584.38;;;23.60;34.21
16100;BME280;8154;50.830;12.082;2024-03-23T10:26:23;98595.69;;;23.56;34.84
16100;BME280;8154;50.830;12.082;2024-03-23T10:28:58;98586.63;;;23.57;34.44
16100;BME280;8154;50.830;12.082;2024-03-23T10:31:28;98582.94;;;23.58;34.40
16100;BME280;8154;50.830;12.082;2024-03-23T10:33:54;98577.59;;;23.58;34.22
16100;BME280;8154;50.830;12.082;2024-03-23T10:36:22;98584.59;;;23.59;34.58
16100;BME280;8154;50.830;12.082;2024-03-23T10:38:50;98586.63;;;23.57;34.28
16100;BME280;8154;50.830;12.082;2024-03-23T10:41:18;98583.56;;;23.53;34.54
16100;BME280;8154;50.830;12.082;2024-03-23T10:43:46;98587.50;;;23.51;34.80
16100;BME280;8154;50.830;12.082;2024-03-23T10:46:12;98594.09;;;23.48;34.84
16100;BME280;8154;50.830;12.082;2024-03-23T10:48:39;98603.50;;;23.51;34.71
16100;BME280;8154;50.830;12.082;2024-03-23T10:51:08;98602.84;;;23.55;34.79
16100;BME280;8154;50.830;12.082;2024-03-23T10:53:36;98607.28;;;23.68;34.67
16100;BME280;8154;50.830;12.082;2024-03-23T10:56:04;98564.34;;;23.51;34.64
16100;BME280;8154;50.830;12.082;2024-03-23T10:58:36;98624.59;;;23.83;34.41
16100;BME280;8154;50.830;12.082;2024-03-23T11:01:04;98622.16;;;23.82;34.52
16100;BME280;8154;50.830;12.082;2024-03-23T11:03:34;98612.22;;;23.64;34.62
16100;BME280;8154;50.830;12.082;2024-03-23T11:06:06;98616.22;;;23.80;34.26
16100;BME280;8154;50.830;12.082;2024-03-23T11:08:36;98610.16;;;23.91;34.23
16100;BME280;8154;50.830;12.082;2024-03-23T11:11:20;98612.41;;;23.94;34.12
16100;BME280;8154;50.830;12.082;2024-03-23T11:13:51;98607.13;;;23.87;34.22
16100;BME280;8154;50.830;12.082;2024-03-23T11:16:24;98593.94;;;23.92;34.13
16100;BME280;8154;50.830;12.082;2024-03-23T11:18:51;98585.09;;;23.92;34.09
16100;BME280;8154;50.830;12.082;2024-03-23T11:21:53;98601.09;;;23.98;33.99
16100;BME280;8154;50.830;12.082;2024-03-23T11:24:20;98614.72;;;23.84;34.26
16100;BME280;8154;50.830;12.082;2024-03-23T11:26:48;98618.78;;;23.93;34.07
16100;BME280;8154;50.830;12.082;2024-03-23T11:29:16;98606.00;;;24.01;34.23
16100;BME280;8154;50.830;12.082;2024-03-23T11:34:13;98626.63;;;23.88;34.11
16100;BME280;8154;50.830;12.082;2024-03-23T11:36:39;98622.44;;;23.98;33.87
16100;BME280;8154;50.830;12.082;2024-03-23T11:39:18;98621.56;;;24.04;33.78
16100;BME280;8154;50.830;12.082;2024-03-23T11:44:18;98620.00;;;23.97;34.30
16100;BME280;8154;50.830;12.082;2024-03-23T11:46:45;98578.19;;;23.84;33.71
16100;BME280;8154;50.830;12.082;2024-03-23T11:49:25;98608.34;;;24.16;33.84
16100;BME280;8154;50.830;12.082;2024-03-23T11:51:52;98613.72;;;24.09;33.86
16100;BME280;8154;50.830;12.082;2024-03-23T11:54:21;98611.34;;;24.01;34.26
16100;BME280;8154;50.830;12.082;2024-03-23T11:56:58;98596.09;;;24.08;33.68
16100;BME280;8154;50.830;12.082;2024-03-23T11:59:34;98600.56;;;24.14;33.94
16100;BME280;8154;50.830;12.082;2024-03-23T12:02:14;98610.09;;;24.04;33.77
16100;BME280;8154;50.830;12.082;2024-03-23T12:04:44;98579.47;;;23.82;34.17
16100;BME280;8154;50.830;12.082;2024-03-23T12:07:18;98588.78;;;23.97;34.05
16100;BME280;8154;50.830;12.082;2024-03-23T12:09:45;98588.09;;;24.08;34.05
16100;BME280;8154;50.830;12.082;2024-03-23T12:12:18;98588.81;;;24.15;33.50
16100;BME280;8154;50.830;12.082;2024-03-23T12:14:45;98583.25;;;24.17;33.71
16100;BME280;8154;50.830;12.082;2024-03-23T12:17:14;98591.09;;;24.12;34.04
16100;BME280;8154;50.830;12.082;2024-03-23T12:19:42;98577.28;;;23.97;33.74
16100;BME280;8154;50.830;12.082;2024-03-23T12:22:08;98588.09;;;24.08;33.72
16100;BME280;8154;50.830;12.082;2024-03-23T12:24:35;98565.78;;;23.96;33.87
16100;BME280;8154;50.830;12.082;2024-03-23T12:27:04;98580.06;;;24.08;33.88
16100;BME280;8154;50.830;12.082;2024-03-23T12:29:31;98578.81;;;24.11;33.82
16100;BME280;8154;50.830;12.082;2024-03-23T12:32:02;98576.41;;;24.03;33.73
16100;BME280;8154;50.830;12.082;2024-03-23T12:34:29;98586.75;;;23.93;33.88
16100;BME280;8154;50.830;12.082;2024-03-23T12:36:56;98581.53;;;24.04;33.89
16100;BME280;8154;50.830;12.082;2024-03-23T12:39:22;98576.34;;;24.09;33.67
16100;BME280;8154;50.830;12.082;2024-03-23T12:41:49;98575.09;;;24.12;33.74
16100;BME280;8154;50.830;12.082;2024-03-23T12:44:15;98576.31;;;24.16;33.77
16100;BME280;8154;50.830;12.082;2024-03-23T12:46:42;98575.09;;;24.12;33.94
16100;BME280;8154;50.830;12.082;2024-03-23T12:49:08;98586.25;;;24.02;33.96
16100;BME280;8154;50.830;12.082;2024-03-23T12:51:34;98580.53;;;24.05;33.69
16100;BME280;8154;50.830;12.082;2024-03-23T12:54:02;98584.97;;;24.11;33.55
16100;BME280;8154;50.830;12.082;2024-03-23T12:56:28;98573.03;;;24.14;33.68
16100;BME280;8154;50.830;12.082;2024-03-23T12:58:55;98582.88;;;24.13;33.56
16100;BME280;8154;50.830;12.082;2024-03-23T13:01:23;98588.59;;;24.17;33.36
16100;BME280;8154;50.830;12.082;2024-03-23T13:03:50;98584.16;;;24.11;33.51
16100;BME280;8154;50.830;12.082;2024-03-23T13:06:16;98571.91;;;24.03;33.73
16100;BME280;8154;50.830;12.082;2024-03-23T13:08:45;98578.41;;;24.07;33.92
16100;BME280;8154;50.830;12.082;2024-03-23T13:11:12;98581.47;;;24.11;33.70
16100;BME280;8154;50.830;12.082;2024-03-23T13:13:40;98574.50;;;24.10;33.65
16100;BME280;8154;50.830;12.082;2024-03-23T13:16:08;98577.41;;;24.08;33.43
16100;BME280;8154;50.830;12.082;2024-03-23T13:18:34;98573.53;;;24.04;33.68
16100;BME280;8154;50.830;12.082;2024-03-23T13:21:00;98565.56;;;23.98;33.83
16100;BME280;8154;50.830;12.082;2024-03-23T13:23:26;98561.59;;;24.07;33.72
16100;BME280;8154;50.830;12.082;2024-03-23T13:25:55;98531.28;;;23.95;33.86
16100;BME280;8154;50.830;12.082;2024-03-23T13:28:22;98554.56;;;24.12;33.64
16100;BME280;8154;50.830;12.082;2024-03-23T13:30:53;98547.94;;;24.15;33.50
16100;BME280;8154;50.830;12.082;2024-03-23T13:33:20;98544.00;;;23.99;33.57
16100;BME280;8154;50.830;12.082;2024-03-23T13:35:53;98539.94;;;23.97;34.02
16100;BME280;8154;50.830;12.082;2024-03-23T13:38:21;98545.59;;;24.07;33.58
16100;BME280;8154;50.830;12.082;2024-03-23T13:40:58;98548.63;;;24.10;33.54
16100;BME280;8154;50.830;12.082;2024-03-23T13:43:27;98547.16;;;24.14;33.77
16100;BME280;8154;50.830;12.082;2024-03-23T13:45:58;98552.63;;;24.19;33.72
16100;BME280;8154;50.830;12.082;2024-03-23T13:48:26;98552.13;;;24.11;33.74
16100;BME280;8154;50.830;12.082;2024-03-23T13:51:03;98546.78;;;24.11;33.60
16100;BME280;8154;50.830;12.082;2024-03-23T13:53:31;98553.72;;;24.12;33.69
16100;BME280;8154;50.830;12.082;2024-03-23T13:55:58;98549.22;;;24.12;33.64
16100;BME280;8154;50.830;12.082;2024-03-23T13:58:24;98557.28;;;24.06;33.67
16100;BME280;8154;50.830;12.082;2024-03-23T14:00:53;98558.78;;;24.02;33.70
16100;BME280;8154;50.830;12.082;2024-03-23T14:03:19;98558.56;;;24.03;33.77
16100;BME280;8154;50.830;12.082;2024-03-23T14:05:46;98549.72;;;24.03;33.59
16100;BME280;8154;50.830;12.082;2024-03-23T14:08:15;98554.41;;;24.07;33.54